Partridge Green, United Kingdom
Current Conditions -  °F | °C
As of 11:50 AM on Tuesday 21 Oct 2014 (Local Time) from EGKA Reporting Station
Few Clouds Few Clouds  
Wind Chill: 14°   Ceiling: Unl
Heat Index: 14°   Visibility: 6mi
Dew Point:   Wind: 29mph
Humidity: 59%   Direction: 280°W
Pressure: 29.71"   Gusts: 46mph
Location:  50.96°N, 0.31°W
Report Text: EGKA 211050Z 28025G40KT 9999 FEW025 14/06 Q1006
Loading
Personal Weather Stations






























Interactive Weather Map
Tropical Storm Tracking
New forecast layout! Learn more

10-Day Weather Forecast

Advertisements
Track Severe Weather on mobile